Time;durP1;ratioP1;P1;durP2;ratioP2;P2;SDS_P1;SDS_P2;PMS_P1;PMS_P2;Temp;Humidity;BMP_temperature;BMP_pressure;BME280_temperature;BME280_humidity;BME280_pressure;Samples;Min_cycle;Max_cycle;Signal;HPM_P1;HPM_P2
2022/04/02 11:39:37;;;;;;;2.37;1.72;;;;;;;3.27;43.69;99291.27;1870409;75;22028;-61
2022/04/02 11:42:07;;;;;;;3.10;2.02;;;;;;;3.40;41.29;99240.22;1850088;75;20994;-62
2022/04/02 11:44:38;;;;;;;3.70;1.70;;;;;;;3.26;41.77;99245.73;1850450;75;21111;-61
2022/04/02 11:47:08;;;;;;;2.42;1.70;;;;;;;3.32;42.04;99248.59;1846969;77;21013;-62
2022/04/02 11:49:42;;;;;;;3.17;1.67;;;;;;;3.39;42.18;99231.21;1853854;75;20929;-62
2022/04/02 11:52:14;;;;;;;2.60;1.70;;;;;;;3.36;42.34;99249.78;1849303;77;20993;-61
2022/04/02 11:54:59;;;;;;;2.00;1.30;;;;;;;3.22;41.40;99264.77;1847201;76;20939;-62
2022/04/02 11:57:27;;;;;;;3.27;1.72;;;;;;;3.20;41.78;99256.20;1848247;77;21935;-62
2022/04/02 12:00:05;;;;;;;3.20;2.00;;;;;;;3.19;42.48;99243.33;1852388;75;21072;-62
2022/04/02 12:02:44;;;;;;;3.20;1.90;;;;;;;3.31;42.55;99238.72;1833935;77;22490;-61
2022/04/02 12:05:39;;;;;;;3.47;2.40;;;;;;;3.35;42.36;99249.80;1832271;76;22894;-62
2022/04/02 12:08:07;;;;;;;5.85;2.05;;;;;;;3.26;42.14;99268.95;1815781;78;20875;-62
2022/04/02 12:10:46;;;;;;;4.03;1.95;;;;;;;3.08;42.33;99266.80;1815446;78;21039;-64
2022/04/02 12:13:13;;;;;;;3.62;1.80;;;;;;;3.18;42.84;99246.81;1815331;76;20973;-63
2022/04/02 12:15:41;;;;;;;3.77;1.65;;;;;;;3.53;43.11;99257.09;1819897;78;21000;-61
2022/04/02 12:18:08;;;;;;;;;;;;;;;3.38;41.72;99260.50;1817750;78;21035;-62
2022/04/02 12:20:40;;;;;;;4.10;1.47;;;;;;;3.16;41.74;99267.47;1820137;78;20165;-62
2022/04/02 12:23:11;;;;;;;4.60;2.12;;;;;;;2.75;42.10;99263.31;1813228;77;21115;-62
2022/04/02 12:25:45;;;;;;;3.05;1.67;;;;;;;2.79;42.32;99273.50;1816064;78;21171;-61
2022/04/02 12:28:16;;;;;;;5.47;1.87;;;;;;;2.83;42.71;99267.41;1815329;78;20988;-62
2022/04/02 12:30:48;;;;;;;5.45;1.90;;;;;;;2.94;43.51;99249.53;1810313;76;20952;-61
2022/04/02 12:33:25;;;;;;;4.87;2.12;;;;;;;2.93;43.45;99247.39;1818440;77;21588;-62
2022/04/02 12:36:10;;;;;;;4.95;1.90;;;;;;;3.08;43.26;99252.63;1809656;77;21120;-61
2022/04/02 12:38:40;;;;;;;3.85;1.50;;;;;;;3.09;43.59;99265.94;1812567;76;20985;-63
2022/04/02 12:41:28;;;;;;;6.15;1.90;;;;;;;2.99;43.32;99272.19;1820201;78;20951;-63
2022/04/02 12:44:06;;;;;;;1.98;1.40;;;;;;;2.53;42.47;99271.52;1814603;78;21059;-62
2022/04/02 12:46:35;;;;;;;2.77;1.65;;;;;;;2.55;42.69;99272.75;1800900;78;21027;-62
2022/04/02 12:49:01;;;;;;;2.70;1.50;;;;;;;2.72;43.03;99255.20;1758926;79;21129;-61
2022/04/02 12:51:31;;;;;;;3.22;1.60;;;;;;;2.95;43.30;99232.74;1784082;79;20963;-61
2022/04/02 12:54:03;;;;;;;3.33;1.95;;;;;;;2.89;43.17;99266.42;1779015;79;21624;-61
2022/04/02 12:56:33;;;;;;;3.83;1.65;;;;;;;2.87;43.44;99245.81;1750259;79;21056;-61
2022/04/02 12:59:00;;;;;;;3.27;1.65;;;;;;;2.55;43.47;99252.13;1765818;79;21008;-61
2022/04/02 13:01:33;;;;;;;5.30;1.57;;;;;;;2.30;43.68;99299.06;1778067;79;21060;-61
2022/04/02 13:04:08;;;;;;;4.17;1.80;;;;;;;2.19;43.72;99286.84;1764952;79;20989;-61
2022/04/02 13:06:48;;;;;;;3.15;1.98;;;;;;;2.18;43.79;99252.92;1770342;80;20979;-61
2022/04/02 13:09:35;;;;;;;3.12;1.90;;;;;;;2.11;44.70;99257.81;1759320;80;21024;-62
2022/04/02 13:12:04;;;;;;;4.37;1.67;;;;;;;2.12;44.67;99274.95;1679991;83;21076;-61
2022/04/02 13:14:39;;;;;;;2.60;1.82;;;;;;;2.43;44.71;99269.55;1675769;83;21677;-61
2022/04/02 13:17:10;;;;;;;4.42;2.05;;;;;;;2.53;44.37;99260.36;1674779;84;20976;-62
2022/04/02 13:22:50;;;;;;;7.20;4.55;;;;;;;2.33;44.36;99273.67;1724960;82;20974;-61
2022/04/02 13:25:25;;;;;;;2.67;1.65;;;;;;;2.32;44.88;99270.23;1700874;83;21032;-62
2022/04/02 13:28:12;;;;;;;3.80;1.40;;;;;;;2.46;44.58;99263.08;1700353;83;21092;-62
2022/04/02 13:30:41;;;;;;;;;;;;;;;2.48;44.60;99305.99;1702505;82;22079;-63
2022/04/02 13:33:35;;;;;;;2.30;1.35;;;;;;;2.21;43.68;99318.55;1700828;82;20697;-63
2022/04/02 13:36:18;;;;;;;3.85;1.55;;;;;;;2.32;44.45;99283.55;1720686;83;21034;-66
2022/04/02 13:38:58;;;;;;;4.87;1.42;;;;;;;2.26;44.57;99296.12;1724773;83;21549;-62
2022/04/02 13:41:32;;;;;;;2.72;1.80;;;;;;;2.06;44.71;99280.23;1701770;83;21003;-64
2022/04/02 13:44:03;;;;;;;4.35;1.40;;;;;;;1.89;44.41;99267.23;1724358;82;21092;-63
2022/04/02 13:46:46;;;;;;;3.58;1.52;;;;;;;1.87;44.80;99302.45;1696737;83;20977;-63
2022/04/02 13:49:28;;;;;;;4.47;1.40;;;;;;;2.14;45.00;99275.77;1692023;83;21400;-63
2022/04/02 13:51:59;;;;;;;6.40;1.40;;;;;;;2.22;44.24;99285.48;1698123;83;21052;-63
2022/04/02 13:54:40;;;;;;;2.20;1.20;;;;;;;2.04;44.26;99275.53;1723054;83;21095;-63
2022/04/02 13:57:17;;;;;;;3.85;1.45;;;;;;;1.81;44.86;99298.70;1703464;82;21022;-62
2022/04/02 14:00:04;;;;;;;3.08;1.50;;;;;;;1.84;45.31;99270.78;1703880;83;20962;-63
2022/04/02 14:02:34;;;;;;;4.80;2.12;;;;;;;1.90;45.55;99279.66;1695350;83;20985;-63
2022/04/02 14:05:28;;;;;;;4.28;2.42;;;;;;;1.90;45.84;99241.89;1698945;84;20977;-63
2022/04/02 14:08:14;;;;;;;2.15;1.32;;;;;;;1.86;45.58;99273.73;1696501;83;21055;-61
2022/04/02 14:10:49;;;;;;;2.87;1.30;;;;;;;1.71;46.14;99307.47;1700277;83;21557;-62
2022/04/02 14:13:20;;;;;;;3.33;1.40;;;;;;;1.81;47.15;99282.42;1679414;84;21012;-63
2022/04/02 14:15:57;;;;;;;2.30;1.27;;;;;;;1.74;46.65;99284.27;1657470;85;21266;-62
2022/04/02 14:18:30;;;;;;;2.08;1.47;;;;;;;1.69;46.24;99310.53;1690641;83;20907;-62
2022/04/02 14:21:07;;;;;;;4.80;1.80;;;;;;;1.64;46.59;99305.89;1690512;83;21464;-67
2022/04/02 14:24:03;;;;;;;4.40;1.47;;;;;;;1.59;46.45;99290.97;1690141;83;21578;-63
2022/04/02 14:27:14;;;;;;;2.70;1.45;;;;;;;1.54;47.23;99285.48;1678610;84;21013;-62
2022/04/02 14:30:01;;;;;;;7.03;2.33;;;;;;;1.58;46.96;99321.45;1666504;84;21028;-63
2022/04/02 14:32:51;;;;;;;5.12;2.10;;;;;;;1.38;47.49;99284.05;1672516;85;21610;-64
2022/04/02 14:35:47;;;;;;;5.53;1.92;;;;;;;1.20;48.31;99307.48;1619642;87;21456;-63
2022/04/02 14:38:54;;;;;;;3.70;1.80;;;;;;;1.14;48.56;99296.01;1608309;87;21188;-64
2022/04/02 14:41:48;;;;;;;4.03;1.40;;;;;;;1.06;48.67;99308.53;1616074;87;21146;-64
2022/04/02 14:44:48;;;;;;;4.53;1.80;;;;;;;0.94;49.59;99295.88;1619611;87;21211;-63
2022/04/02 14:47:36;;;;;;;3.60;1.67;;;;;;;0.95;50.86;99297.56;1611677;87;21153;-65
2022/04/02 14:50:11;;;;;;;9.20;1.80;;;;;;;0.94;49.33;99298.45;1614265;87;21745;-63
2022/04/02 14:53:11;;;;;;;5.12;2.30;;;;;;;0.92;51.03;99307.05;1616886;87;21105;-64
2022/04/02 14:56:07;;;;;;;6.90;1.67;;;;;;;0.91;50.19;99318.22;1610730;87;21662;-64
2022/04/02 14:59:11;;;;;;;4.50;1.57;;;;;;;0.92;50.25;99307.89;1613713;87;21530;-64
2022/04/02 15:02:12;;;;;;;1.72;0.93;;;;;;;0.87;50.06;99307.14;1608786;88;21177;-63
2022/04/02 15:05:12;;;;;;;4.87;2.00;;;;;;;0.80;50.30;99302.95;1604580;87;21486;-64
2022/04/02 15:07:56;;;;;;;2.62;1.45;;;;;;;0.71;49.55;99318.50;1610655;87;21214;-64
2022/04/02 15:10:48;;;;;;;3.95;1.45;;;;;;;0.58;49.29;99303.23;1602894;88;21093;-63
2022/04/02 15:13:25;;;;;;;3.05;1.65;;;;;;;0.58;49.37;99290.39;1650649;86;21095;-63
2022/04/02 15:15:54;;;;;;;2.52;1.52;;;;;;;0.63;49.38;99304.03;1688297;84;21187;-64
2022/04/02 15:18:31;;;;;;;1.92;1.20;;;;;;;0.73;49.55;99321.88;1668404;85;21108;-64
2022/04/02 15:21:17;;;;;;;5.85;1.90;;;;;;;0.75;50.23;99339.42;1673003;85;21044;-64
2022/04/02 15:24:00;;;;;;;;;;;;;;;0.75;50.09;99313.72;1675652;85;21068;-64
2022/04/02 15:26:30;;;;;;;4.20;2.25;;;;;;;0.75;50.17;99306.01;1671709;85;20124;-64
2022/04/02 15:29:07;;;;;;;5.25;2.05;;;;;;;0.71;51.79;99300.52;1670367;85;20934;-65
2022/04/02 15:32:03;;;;;;;4.50;2.23;;;;;;;0.63;52.32;99311.73;1672025;85;22259;-65
2022/04/02 15:34:50;;;;;;;8.33;2.87;;;;;;;0.65;52.86;99304.86;1668487;85;21025;-65
2022/04/02 15:37:37;;;;;;;7.12;2.50;;;;;;;0.70;53.50;99301.37;1668006;84;21104;-64
2022/04/02 15:40:25;;;;;;;5.30;2.70;;;;;;;0.70;54.55;99319.35;1662763;86;21008;-63
2022/04/02 15:42:58;;;;;;;5.83;2.00;;;;;;;0.69;53.09;99307.39;1669865;85;21029;-64
2022/04/02 15:45:29;;;;;;;5.65;3.00;;;;;;;0.65;54.02;99317.71;1673753;84;22530;-66
2022/04/02 15:47:58;;;;;;;6.62;2.25;;;;;;;0.58;53.50;99316.52;1668365;84;21064;-63
2022/04/02 15:50:32;;;;;;;5.33;2.33;;;;;;;0.50;54.52;99311.91;1656740;85;21005;-63
2022/04/02 15:53:15;;;;;;;5.12;2.37;;;;;;;0.45;55.59;99327.41;1686936;84;21010;-63
2022/04/02 15:55:49;;;;;;;8.68;3.60;;;;;;;0.45;55.40;99314.56;1671989;85;21017;-64
2022/04/02 15:58:38;;;;;;;4.47;2.10;;;;;;;0.49;53.94;99340.61;1671064;85;21593;-64
2022/04/02 16:01:06;;;;;;;4.10;1.50;;;;;;;0.47;54.08;99341.05;1671139;85;21101;-63
2022/04/02 16:03:42;;;;;;;2.65;1.05;;;;;;;0.41;54.51;99341.14;1669962;84;21064;-63
2022/04/02 16:06:26;;;;;;;4.45;2.05;;;;;;;0.36;54.59;99335.20;1672225;85;21000;-62
2022/04/02 16:09:15;;;;;;;3.75;1.40;;;;;;;0.37;54.54;99321.52;1690416;84;21072;-63
2022/04/02 16:11:44;;;;;;;4.55;1.72;;;;;;;0.32;54.85;99342.10;1659529;84;22514;-64
2022/04/02 16:14:36;;;;;;;1.85;1.20;;;;;;;0.29;55.39;99346.44;1684352;83;21010;-64
2022/04/02 16:17:07;;;;;;;4.37;2.62;;;;;;;0.38;54.09;99333.47;1687316;83;22240;-63
2022/04/02 16:19:48;;;;;;;2.27;1.10;;;;;;;0.42;53.83;99350.53;1688062;83;21005;-63
2022/04/02 16:22:23;;;;;;;3.98;1.07;;;;;;;0.40;52.78;99331.74;1675552;84;21020;-63
2022/04/02 16:25:00;;;;;;;2.05;1.27;;;;;;;0.33;52.81;99343.79;1689348;83;21081;-62
2022/04/02 16:27:30;;;;;;;;;;;;;;;0.19;52.58;99350.36;1649536;85;21034;-63
2022/04/02 16:29:58;;;;;;;3.83;1.60;;;;;;;0.15;52.58;99355.13;1658255;84;20486;-64
2022/04/02 16:32:29;;;;;;;1.85;0.82;;;;;;;0.08;52.33;99358.62;1682160;83;20954;-62
2022/04/02 16:34:56;;;;;;;2.77;1.42;;;;;;;0.04;52.17;99359.53;1675339;84;20993;-62
2022/04/02 16:37:25;;;;;;;4.28;1.67;;;;;;;-0.05;52.15;99354.06;1676224;84;21181;-62
2022/04/02 16:39:54;;;;;;;7.45;3.35;;;;;;;-0.04;52.39;99356.19;1686215;84;21075;-62
2022/04/02 16:42:24;;;;;;;12.33;5.33;;;;;;;-0.02;52.47;99355.75;1686258;84;21511;-63
2022/04/02 16:44:54;;;;;;;5.37;3.02;;;;;;;-0.06;52.67;99363.05;1673277;84;21025;-62
2022/04/02 16:47:29;;;;;;;23.52;8.35;;;;;;;-0.07;53.11;99370.34;1678459;84;21593;-62
2022/04/02 16:50:06;;;;;;;13.68;5.25;;;;;;;-0.09;52.96;99355.38;1672722;84;21058;-63
2022/04/02 16:52:37;;;;;;;10.40;4.45;;;;;;;-0.07;53.17;99363.92;1684160;83;21004;-63
2022/04/02 16:55:11;;;;;;;3.62;1.65;;;;;;;-0.06;52.97;99368.18;1673764;84;21354;-62
2022/04/02 16:57:42;;;;;;;4.78;1.45;;;;;;;-0.11;52.98;99374.66;1684832;83;21052;-62
2022/04/02 17:00:12;;;;;;;2.75;1.45;;;;;;;-0.13;52.77;99376.82;1673516;84;21087;-62
2022/04/02 17:02:47;;;;;;;6.83;2.77;;;;;;;-0.21;53.01;99382.02;1647553;85;21921;-63
2022/04/02 17:05:19;;;;;;;3.52;1.60;;;;;;;-0.23;52.96;99383.30;1671773;84;21084;-62
2022/04/02 17:07:54;;;;;;;4.47;2.00;;;;;;;-0.30;52.92;99380.39;1690120;83;21531;-64
2022/04/02 17:10:29;;;;;;;3.42;1.50;;;;;;;-0.38;53.16;99384.73;1642670;85;21077;-62
2022/04/02 17:13:06;;;;;;;4.03;1.45;;;;;;;-0.42;53.37;99395.89;1699534;84;20995;-64
2022/04/02 17:15:36;;;;;;;4.65;2.12;;;;;;;-0.49;53.64;99382.25;1674715;84;21972;-63
2022/04/02 17:18:18;;;;;;;7.28;2.62;;;;;;;-0.56;53.51;99377.17;1644903;86;21021;-64
2022/04/02 17:20:47;;;;;;;3.40;2.27;;;;;;;-0.65;53.58;99387.50;1684531;83;21065;-64
2022/04/02 17:23:37;;;;;;;4.90;2.17;;;;;;;-0.71;53.55;99387.97;1674370;85;21052;-65
2022/04/02 17:26:32;;;;;;;6.00;2.50;;;;;;;-0.78;54.80;99385.03;1674937;85;21602;-64
2022/04/02 17:28:58;;;;;;;3.83;2.25;;;;;;;-0.84;54.27;99385.09;1673513;85;21095;-63
2022/04/02 17:31:31;;;;;;;4.90;2.13;;;;;;;-0.91;53.88;99385.53;1645873;86;21020;-63
2022/04/02 17:34:24;;;;;;;7.35;3.00;;;;;;;-0.97;54.95;99380.89;1645207;85;21033;-63
2022/04/02 17:37:03;;;;;;;8.25;3.87;;;;;;;-1.03;54.68;99384.77;1683618;83;21063;-63
2022/04/02 17:39:31;;;;;;;7.75;2.77;;;;;;;-1.08;55.29;99385.23;1703339;82;21655;-63
2022/04/02 17:42:11;;;;;;;10.00;3.37;;;;;;;-1.14;55.96;99386.95;1682760;83;21187;-63
2022/04/02 17:44:38;;;;;;;14.73;3.67;;;;;;;-1.11;55.47;99385.25;1704076;84;21601;-62
2022/04/02 17:47:06;;;;;;;6.72;3.08;;;;;;;-1.16;55.24;99396.35;1668825;84;21131;-63
2022/04/02 17:49:41;;;;;;;8.40;3.25;;;;;;;-1.22;55.60;99393.83;1684574;83;21131;-63
2022/04/02 17:52:28;;;;;;;9.33;2.47;;;;;;;-1.27;56.33;99390.87;1668989;84;21045;-64
2022/04/02 17:54:54;;;;;;;9.58;3.42;;;;;;;-1.29;56.15;99401.10;1684763;83;21756;-64
2022/04/02 17:57:25;;;;;;;8.13;2.85;;;;;;;-1.30;55.97;99398.13;1674679;84;21076;-64
2022/04/02 17:59:52;;;;;;;4.87;2.55;;;;;;;-1.31;55.66;99401.56;1674500;84;21644;-64
2022/04/02 18:02:21;;;;;;;9.98;3.17;;;;;;;-1.32;56.75;99404.96;1674729;84;21719;-64
2022/04/02 18:04:58;;;;;;;8.63;3.08;;;;;;;-1.34;56.39;99411.83;1672621;84;21175;-63
2022/04/02 18:07:26;;;;;;;9.83;3.65;;;;;;;-1.39;55.93;99406.71;1645040;86;21111;-63
2022/04/02 18:09:55;;;;;;;8.58;3.75;;;;;;;-1.41;55.50;99408.85;1647548;85;21036;-64
2022/04/02 18:12:26;;;;;;;10.32;3.52;;;;;;;-1.44;57.17;99412.70;1697306;82;20994;-63
2022/04/02 18:14:54;;;;;;;9.65;3.20;;;;;;;-1.50;55.64;99416.58;1673971;85;20981;-63
2022/04/02 18:17:21;;;;;;;6.20;3.05;;;;;;;-1.58;55.62;99409.76;1669618;84;21600;-63
2022/04/02 18:19:48;;;;;;;4.33;2.40;;;;;;;-1.60;56.91;99415.33;1673381;84;21080;-63
2022/04/02 18:22:15;;;;;;;9.83;3.42;;;;;;;-1.62;57.24;99408.08;1671783;84;21027;-63
2022/04/02 18:24:42;;;;;;;9.65;3.72;;;;;;;-1.61;56.68;99423.84;1702389;83;21052;-63
2022/04/02 18:27:09;;;;;;;7.80;3.12;;;;;;;-1.63;57.33;99422.15;1702831;83;20957;-63
2022/04/02 18:29:35;;;;;;;10.45;4.33;;;;;;;-1.61;57.11;99428.97;1700854;82;20965;-63
2022/04/02 18:32:03;;;;;;;8.70;3.27;;;;;;;-1.60;56.72;99417.89;1701246;83;21423;-64
2022/04/02 18:34:29;;;;;;;;;;;;;;;-1.62;56.72;99423.44;1703217;84;21029;-64
2022/04/02 18:36:56;;;;;;;14.20;2.73;;;;;;;-1.61;56.70;99423.84;1684345;83;20165;-64
2022/04/02 18:39:23;;;;;;;4.20;2.58;;;;;;;-1.63;56.61;99425.55;1712840;83;20939;-63
2022/04/02 18:41:55;;;;;;;5.55;2.40;;;;;;;-1.62;56.61;99417.04;1671855;84;21021;-64
2022/04/02 18:44:22;;;;;;;7.37;2.95;;;;;;;-1.63;56.93;99421.71;1699888;83;21119;-64
2022/04/02 18:46:48;;;;;;;6.37;2.60;;;;;;;-1.65;56.49;99427.29;1700042;84;20965;-63
2022/04/02 18:49:21;;;;;;;5.20;3.05;;;;;;;-1.68;56.44;99440.10;1701064;84;21519;-64
2022/04/02 18:51:47;;;;;;;4.90;3.30;;;;;;;-1.70;56.56;99439.24;1716115;83;21021;-62
2022/04/02 18:54:15;;;;;;;5.00;2.85;;;;;;;-1.73;56.62;99437.97;1676163;84;21997;-63
2022/04/02 18:56:42;;;;;;;7.53;3.40;;;;;;;-1.78;56.40;99435.84;1674550;84;22210;-63
2022/04/02 18:59:09;;;;;;;4.67;2.95;;;;;;;-1.81;56.51;99440.97;1684513;84;21007;-63
2022/04/02 19:01:36;;;;;;;4.90;3.10;;;;;;;-1.85;57.14;99441.81;1686243;84;21473;-63
2022/04/02 19:04:03;;;;;;;6.87;2.75;;;;;;;-1.89;56.39;99435.02;1713607;83;21057;-63
2022/04/02 19:06:29;;;;;;;9.20;3.07;;;;;;;-1.92;57.34;99435.87;1713334;83;21114;-63
2022/04/02 19:08:58;;;;;;;7.12;3.52;;;;;;;-1.93;57.11;99435.86;1708090;83;21140;-63
2022/04/02 19:11:25;;;;;;;4.92;3.12;;;;;;;-1.95;56.95;99429.91;1712989;83;21077;-63
2022/04/02 19:13:52;;;;;;;7.60;3.22;;;;;;;-1.96;57.01;99434.18;1719469;82;20961;-63
2022/04/02 19:16:19;;;;;;;6.62;3.45;;;;;;;-1.99;56.85;99437.14;1709364;83;20994;-63
2022/04/02 19:18:45;;;;;;;8.63;3.33;;;;;;;-2.03;56.95;99438.43;1706947;82;20953;-63
2022/04/02 19:21:12;;;;;;;9.17;4.00;;;;;;;-2.05;56.99;99442.69;1704087;82;21666;-63
2022/04/02 19:23:39;;;;;;;7.78;3.70;;;;;;;-2.08;57.28;99433.73;1704252;84;21007;-63
2022/04/02 19:26:11;;;;;;;8.38;3.75;;;;;;;-2.10;56.79;99440.59;1670870;84;21777;-63
2022/04/02 19:28:38;;;;;;;6.12;3.08;;;;;;;-2.14;57.01;99445.27;1665827;85;21097;-63
2022/04/02 19:31:10;;;;;;;7.85;3.45;;;;;;;-2.14;57.16;99440.58;1674781;85;21024;-63
2022/04/02 19:33:37;;;;;;;7.53;4.08;;;;;;;-2.15;57.16;99435.05;1703718;83;23270;-63
2022/04/02 19:36:06;;;;;;;7.53;4.10;;;;;;;-2.18;57.36;99435.90;1723370;83;20962;-63
2022/04/02 19:38:33;;;;;;;10.60;4.35;;;;;;;-2.22;57.08;99439.30;1704471;82;21059;-63
2022/04/02 19:41:02;;;;;;;10.75;5.45;;;;;;;-2.24;57.39;99437.19;1706411;83;21112;-63
2022/04/02 19:43:30;;;;;;;12.13;5.95;;;;;;;-2.26;57.26;99440.16;1703452;82;20987;-63
2022/04/02 19:45:59;;;;;;;11.30;5.17;;;;;;;-2.26;57.28;99446.55;1705772;83;21122;-64
2022/04/02 19:48:26;;;;;;;18.15;7.75;;;;;;;-2.25;57.29;99452.09;1705357;82;21012;-64
2022/04/02 19:50:57;;;;;;;35.13;15.10;;;;;;;-2.27;57.38;99440.99;1704098;83;21048;-63
2022/04/02 19:53:24;;;;;;;41.42;16.45;;;;;;;-2.26;57.43;99445.28;1703024;82;21044;-63
2022/04/02 19:55:51;;;;;;;41.05;15.85;;;;;;;-2.26;57.51;99454.23;1704262;83;21383;-63
2022/04/02 19:58:18;;;;;;;32.73;13.55;;;;;;;-2.29;57.61;99447.84;1699763;82;21867;-63
2022/04/02 20:00:45;;;;;;;21.95;10.03;;;;;;;-2.33;57.46;99448.67;1718107;81;20951;-63
2022/04/02 20:03:11;;;;;;;21.20;8.63;;;;;;;-2.35;58.00;99447.81;1672359;84;21129;-63
2022/04/02 20:05:38;;;;;;;16.67;6.90;;;;;;;-2.35;58.13;99450.36;1718983;83;21013;-63
2022/04/02 20:08:06;;;;;;;20.08;7.03;;;;;;;-2.33;58.11;99447.39;1673874;84;21047;-63
2022/04/02 20:10:32;;;;;;;10.85;5.58;;;;;;;-2.33;57.86;99451.23;1691859;83;21049;-63
2022/04/02 20:12:59;;;;;;;11.15;5.17;;;;;;;-2.32;57.98;99446.56;1716475;81;21044;-63
2022/04/02 20:15:26;;;;;;;9.60;5.05;;;;;;;-2.28;58.55;99449.53;1705024;84;21522;-62
2022/04/02 20:17:54;;;;;;;10.38;4.87;;;;;;;-2.26;58.17;99446.13;1701198;84;21025;-63
2022/04/02 20:20:21;;;;;;;10.68;4.62;;;;;;;-2.22;58.02;99449.52;1702756;82;20966;-63
2022/04/02 20:22:49;;;;;;;8.75;4.47;;;;;;;-2.19;58.32;99449.52;1707430;82;21643;-63
2022/04/02 20:25:16;;;;;;;11.63;5.53;;;;;;;-2.18;58.37;99441.45;1705952;84;21013;-63
2022/04/02 20:27:42;;;;;;;7.70;4.37;;;;;;;-2.21;58.21;99444.86;1703424;82;21553;-63
2022/04/02 20:30:13;;;;;;;7.50;4.23;;;;;;;-2.20;58.64;99452.95;1714777;83;21001;-63
2022/04/02 20:32:43;;;;;;;9.80;3.75;;;;;;;-2.17;59.70;99446.98;1723089;83;22268;-63
2022/04/02 20:35:12;;;;;;;4.75;2.80;;;;;;;-2.16;59.31;99441.84;1704083;84;21149;-63
2022/04/02 20:37:39;;;;;;;6.12;2.92;;;;;;;-2.13;58.80;99443.55;1701374;82;21146;-63
2022/04/02 20:40:11;;;;;;;6.87;3.47;;;;;;;-2.12;58.85;99449.11;1677499;84;21013;-63
2022/04/02 20:42:39;;;;;;;6.03;3.15;;;;;;;-2.11;58.73;99441.42;1676965;84;21013;-62
2022/04/02 20:45:08;;;;;;;10.65;3.08;;;;;;;-2.10;58.84;99439.31;1710312;83;21009;-62
2022/04/02 20:47:39;;;;;;;6.72;3.22;;;;;;;-2.04;58.83;99442.29;1705206;84;21116;-62
2022/04/02 20:50:13;;;;;;;7.37;3.05;;;;;;;-2.00;58.70;99437.58;1698962;82;20962;-62
2022/04/02 20:52:42;;;;;;;6.30;2.87;;;;;;;-1.93;58.81;99439.69;1702505;82;21069;-63
2022/04/02 20:55:10;;;;;;;6.62;2.80;;;;;;;-1.89;58.72;99442.69;1701173;82;21224;-63
2022/04/02 20:57:36;;;;;;;5.95;2.70;;;;;;;-1.83;58.76;99446.08;1720038;81;20989;-62
2022/04/02 21:00:06;;;;;;;4.77;2.70;;;;;;;-1.76;59.13;99449.50;1703118;82;21496;-62
2022/04/02 21:02:32;;;;;;;4.80;2.87;;;;;;;-1.70;59.35;99449.48;1704031;82;21605;-62
2022/04/02 21:04:59;;;;;;;9.30;3.60;;;;;;;-1.68;59.46;99450.34;1702410;82;21003;-63
2022/04/02 21:07:26;;;;;;;8.13;3.85;;;;;;;-1.65;59.13;99445.21;1704157;82;21559;-63
2022/04/02 21:09:53;;;;;;;7.53;2.97;;;;;;;-1.61;59.77;99444.33;1704397;82;21049;-63
2022/04/02 21:12:19;;;;;;;5.97;2.90;;;;;;;-1.58;59.45;99441.77;1702564;84;21270;-63
2022/04/02 21:15:04;;;;;;;5.85;3.30;;;;;;;-1.55;59.37;99442.62;1679129;84;21127;-63
2022/04/02 21:17:33;;;;;;;6.53;3.08;;;;;;;-1.52;60.25;99437.48;1694649;83;20925;-63
2022/04/02 21:20:00;;;;;;;6.75;3.17;;;;;;;-1.49;60.23;99438.31;1720505;82;21027;-62
2022/04/02 21:22:30;;;;;;;5.10;2.62;;;;;;;-1.47;60.17;99442.17;1704770;83;20979;-63
2022/04/02 21:24:55;;;;;;;7.03;2.95;;;;;;;-1.41;60.04;99447.27;1701750;82;21503;-62
2022/04/02 21:27:22;;;;;;;5.42;2.60;;;;;;;-1.38;60.13;99449.81;1705763;82;21028;-62
2022/04/02 21:29:49;;;;;;;5.93;2.90;;;;;;;-1.36;60.76;99448.11;1700089;84;21041;-63
2022/04/02 21:32:15;;;;;;;8.00;2.65;;;;;;;-1.36;60.68;99442.98;1705823;82;21021;-62
2022/04/02 21:34:43;;;;;;;5.37;2.37;;;;;;;-1.30;60.72;99451.08;1705794;83;21010;-62
2022/04/02 21:37:09;;;;;;;4.90;2.42;;;;;;;-1.26;60.38;99453.63;1703676;82;21737;-62
2022/04/02 21:39:36;;;;;;;4.15;2.33;;;;;;;-1.24;60.34;99454.89;1682074;84;20961;-62
2022/04/02 21:42:04;;;;;;;7.37;2.80;;;;;;;-1.24;60.79;99451.89;1719924;82;20961;-63
2022/04/02 21:44:30;;;;;;;;;;;;;;;-1.35;60.03;99435.72;1705363;83;21488;-63
2022/04/02 21:47:02;;;;;;;5.83;2.90;;;;;;;-1.27;60.33;99446.78;1679513;84;20140;-63
2022/04/02 21:49:26;;;;;;;3.33;2.50;;;;;;;-1.30;60.07;99459.61;1700757;82;21062;-62
2022/04/02 21:51:54;;;;;;;2.95;2.00;;;;;;;-1.34;60.11;99463.05;1704499;84;21023;-62
2022/04/02 21:54:21;;;;;;;5.03;2.67;;;;;;;-1.35;60.07;99456.20;1699237;82;21052;-62
2022/04/02 21:56:48;;;;;;;3.75;2.40;;;;;;;-1.40;59.97;99450.23;1699950;84;21024;-63
2022/04/02 21:59:15;;;;;;;4.58;2.10;;;;;;;-1.44;60.05;99453.68;1697792;84;21067;-62
2022/04/02 22:02:07;;;;;;;6.80;1.97;;;;;;;-1.48;60.14;99460.97;1701438;82;21443;-61
2022/04/02 22:04:35;;;;;;;3.90;1.75;;;;;;;-1.48;60.20;99454.56;1691247;82;20975;-62
2022/04/02 22:07:03;;;;;;;4.97;2.00;;;;;;;-1.46;59.88;99459.23;1701161;84;21047;-62
2022/04/02 22:09:30;;;;;;;3.37;1.98;;;;;;;-1.48;59.77;99457.12;1721397;82;21051;-62
2022/04/02 22:11:56;;;;;;;3.15;1.95;;;;;;;-1.48;59.66;99452.00;1726399;82;21087;-63
2022/04/02 22:14:26;;;;;;;3.50;1.70;;;;;;;-1.48;59.54;99457.12;1706085;81;21495;-62
2022/04/02 22:16:53;;;;;;;2.47;1.70;;;;;;;-1.47;59.49;99467.78;1689443;83;21102;-63
2022/04/02 22:19:20;;;;;;;4.00;2.20;;;;;;;-1.47;59.45;99466.50;1688175;83;21388;-63
2022/04/02 22:21:47;;;;;;;9.37;2.10;;;;;;;-1.45;59.37;99459.67;1691789;83;21280;-62
2022/04/02 22:24:14;;;;;;;10.65;2.02;;;;;;;-1.45;59.30;99463.52;1687004;83;26636;-62
2022/04/02 22:26:40;;;;;;;7.17;2.08;;;;;;;-1.44;59.29;99456.24;1692014;83;21106;-62
2022/04/02 22:29:09;;;;;;;2.83;1.90;;;;;;;-1.44;59.32;99463.92;1692147;84;21009;-62
2022/04/02 22:31:37;;;;;;;4.12;2.00;;;;;;;-1.42;59.33;99463.50;1680977;84;21017;-62
2022/04/02 22:34:04;;;;;;;6.08;2.30;;;;;;;-1.42;59.36;99457.09;1694426;83;20991;-62
2022/04/02 22:36:30;;;;;;;2.45;1.80;;;;;;;-1.39;59.41;99464.33;1677363;84;20946;-63
2022/04/02 22:38:58;;;;;;;2.40;1.57;;;;;;;-1.37;59.40;99465.63;1696329;83;21742;-62
2022/04/02 22:41:26;;;;;;;4.22;1.92;;;;;;;-1.35;59.51;99458.77;1691072;83;21063;-62
2022/04/02 22:43:52;;;;;;;;;;;;;;;-1.30;59.52;99463.45;1692791;84;20948;-63
2022/04/02 22:46:21;;;;;;;3.22;1.92;;;;;;;-1.25;59.57;99465.57;1688569;83;20118;-63
2022/04/02 22:48:48;;;;;;;3.08;1.95;;;;;;;-1.22;59.49;99468.13;1690974;83;21029;-62
2022/04/02 22:51:15;;;;;;;6.22;1.70;;;;;;;-1.20;59.60;99465.13;1688528;84;21153;-62
2022/04/02 22:53:42;;;;;;;2.95;1.70;;;;;;;-1.19;59.51;99465.55;1692237;83;28588;-63
2022/04/02 22:56:09;;;;;;;4.40;1.90;;;;;;;-1.18;59.57;99463.83;1691931;83;21118;-62
2022/04/02 22:58:35;;;;;;;2.67;1.90;;;;;;;-1.19;59.48;99462.98;1692427;83;20999;-62
2022/04/02 23:01:02;;;;;;;2.60;1.85;;;;;;;-1.21;59.47;99462.13;1690666;83;21403;-63
2022/04/02 23:03:30;;;;;;;3.58;1.80;;;;;;;-1.21;59.50;99461.28;1690800;84;21490;-63
2022/04/02 23:05:56;;;;;;;4.92;2.20;;;;;;;-1.24;59.52;99455.73;1688695;83;21068;-63
2022/04/02 23:08:23;;;;;;;5.17;2.50;;;;;;;-1.27;59.43;99464.72;1682141;84;21506;-63
2022/04/02 23:10:50;;;;;;;5.17;2.92;;;;;;;-1.29;59.42;99463.86;1679559;84;21066;-63
2022/04/02 23:13:17;;;;;;;4.37;2.45;;;;;;;-1.32;59.49;99473.27;1678039;84;21064;-63
2022/04/02 23:15:43;;;;;;;3.30;2.37;;;;;;;-1.35;59.47;99461.33;1706173;82;22267;-62
2022/04/02 23:18:10;;;;;;;4.40;2.33;;;;;;;-1.39;59.53;99463.05;1701965;82;21360;-63
2022/04/02 23:20:36;;;;;;;5.17;2.65;;;;;;;-1.42;59.53;99457.09;1694274;84;20947;-63
2022/04/02 23:23:04;;;;;;;5.30;2.67;;;;;;;-1.46;59.48;99459.23;1700647;83;21077;-63
2022/04/02 23:25:39;;;;;;;4.78;2.40;;;;;;;-1.51;59.51;99454.54;1707484;82;21012;-62
2022/04/02 23:28:08;;;;;;;3.52;2.37;;;;;;;-1.56;59.52;99456.28;1697736;82;21452;-62
2022/04/02 23:30:38;;;;;;;4.37;2.25;;;;;;;-1.62;59.51;99452.03;1702458;82;21075;-62
2022/04/02 23:33:07;;;;;;;5.42;2.87;;;;;;;-1.69;59.48;99453.73;1706147;82;21114;-62
2022/04/02 23:35:34;;;;;;;6.03;2.85;;;;;;;-1.75;59.47;99460.16;1705012;82;21841;-62
2022/04/02 23:38:00;;;;;;;4.45;2.40;;;;;;;-1.80;59.55;99451.63;1707194;82;21096;-63
2022/04/02 23:40:27;;;;;;;3.47;2.15;;;;;;;-1.85;59.51;99459.73;1701413;83;21437;-62
2022/04/02 23:42:53;;;;;;;5.57;2.60;;;;;;;-1.91;59.45;99455.91;1700752;84;21006;-62
2022/04/02 23:45:20;;;;;;;5.70;2.33;;;;;;;-1.98;59.61;99455.50;1699526;82;20983;-62